Vollmers Atmospheric Data: 01/11/2019 Summary  Detailed Graphs  Station List

  Temperature     Wind Precipitation Visibility
Timestamp Air Wet
Bulb
Dew-
point
24-hr
Max
24-hr
Min
Relative
Humidity
Atmospheric
Pressure
Avg
Speed
Avg
Dir
Spot
Speed
Spot
Dir
Max
Speed
Max
Dir
  Rate Situation Start End 1 hr 3 hr 6 hr 12 hr 24 hr   Situation
Date Time °F °F °F °F °F % in Hg mph ° mph ° mph ° Y/N in/hr text Date Time Date Time in in in in in mi text
01/11/2019 12:13 AM 43.88 43.34 42.62 54.86 42.62 95.0 Not Reported 6.93 W 8.05 W 7.16 W No 0.000 No Precipitation 01/10/2019 10:59 AM 01/10/2019 11:04 AM 0.000 0.000 0.000 0.000 0.071 Not Reported Not Reported
01/11/2019 12:28 AM 43.88 43.34 42.62 54.86 42.62 94.0 Not Reported 5.59 W 7.16 W 8.05 W No 0.000 No Precipitation 01/10/2019 10:59 AM 01/10/2019 11:04 AM 0.000 0.000 0.000 0.000 0.071 Not Reported Not Reported
01/11/2019 12:43 AM 43.16 42.80 42.26 54.86 42.62 96.0 Not Reported 5.37 W 5.82 W 7.16 W No 0.000 No Precipitation 01/10/2019 10:59 AM 01/10/2019 11:04 AM 0.000 0.000 0.000 0.000 0.067 Not Reported Not Reported
01/11/2019 12:58 AM 43.16 42.80 42.44 54.86 42.62 96.0 Not Reported 4.92 W 6.04 SW 6.04 W No 0.000 No Precipitation 01/10/2019 10:59 AM 01/10/2019 11:04 AM 0.000 0.000 0.000 0.000 0.067 Not Reported Not Reported
01/11/2019 01:13 AM 43.70 42.98 42.26 54.86 42.62 94.0 Not Reported 5.59 W 4.25 W 7.61 NW No 0.000 No Precipitation 01/10/2019 10:59 AM 01/10/2019 11:04 AM 0.000 0.000 0.000 0.000 0.063 Not Reported Not Reported
01/11/2019 01:28 AM 42.80 42.26 41.90 54.86 42.44 96.0 Not Reported 5.82 W 4.92 W 6.49 W No 0.000 No Precipitation 01/10/2019 10:59 AM 01/10/2019 11:04 AM 0.000 0.000 0.000 0.000 0.063 Not Reported Not Reported
01/11/2019 01:43 AM 43.34 42.62 42.08 54.86 42.44 95.0 Not Reported 6.93 SW 4.47 NW 6.26 W No 0.000 No Precipitation 01/10/2019 10:59 AM 01/10/2019 11:04 AM 0.000 0.000 0.000 0.000 0.063 Not Reported Not Reported
01/11/2019 01:58 AM 43.52 43.16 42.62 54.86 42.08 96.0 Not Reported 6.71 W 6.71 W 7.83 W No 0.000 No Precipitation 01/10/2019 10:59 AM 01/10/2019 11:04 AM 0.000 0.000 0.000 0.000 0.063 Not Reported Not Reported
01/11/2019 02:13 AM 41.72 41.18 40.46 54.86 41.72 95.0 Not Reported 5.37 W 6.71 W 8.50 W No 0.000 No Precipitation 01/10/2019 10:59 AM 01/10/2019 11:04 AM 0.000 0.000 0.000 0.000 0.063 Not Reported Not Reported
01/11/2019 02:28 AM 41.72 41.18 40.64 54.86 41.54 95.0 Not Reported 8.05 W 8.50 W 7.16 W No 0.000 No Precipitation 01/10/2019 10:59 AM 01/10/2019 11:04 AM 0.000 0.000 0.000 0.000 0.063 Not Reported Not Reported
01/11/2019 02:43 AM 42.08 41.72 41.36 54.86 41.54 96.0 Not Reported 6.26 W 6.26 W 8.72 SW No 0.000 No Precipitation 01/10/2019 10:59 AM 01/10/2019 11:04 AM 0.000 0.000 0.000 0.000 0.063 Not Reported Not Reported
01/11/2019 02:58 AM 41.72 41.36 41.00 54.86 41.54 96.0 Not Reported 8.72 W 7.38 SW 9.40 W No 0.000 No Precipitation 01/10/2019 10:59 AM 01/10/2019 11:04 AM 0.000 0.000 0.000 0.000 0.063 Not Reported Not Reported
01/11/2019 03:13 AM 41.90 41.54 41.00 54.86 41.36 96.0 Not Reported 7.61 W 7.16 W 9.62 W No 0.000 No Precipitation 01/10/2019 10:59 AM 01/10/2019 11:04 AM 0.000 0.000 0.000 0.000 0.063 Not Reported Not Reported
01/11/2019 03:28 AM 42.08 41.54 40.82 54.86 41.36 95.0 Not Reported 4.47 W 4.70 W 8.72 W No 0.000 No Precipitation 01/10/2019 10:59 AM 01/10/2019 11:04 AM 0.000 0.000 0.000 0.000 0.063 Not Reported Not Reported
01/11/2019 03:43 AM 41.00 40.64 40.10 54.86 40.64 96.0 Not Reported 6.04 W 6.49 W 7.38 SW No 0.000 No Precipitation 01/10/2019 10:59 AM 01/10/2019 11:04 AM 0.000 0.000 0.000 0.000 0.063 Not Reported Not Reported
01/11/2019 03:58 AM 41.00 40.46 39.74 54.86 40.64 94.0 Not Reported 5.37 W 6.93 W 10.29 W No 0.000 No Precipitation 01/10/2019 10:59 AM 01/10/2019 11:04 AM 0.000 0.000 0.000 0.000 0.063 Not Reported Not Reported
01/11/2019 04:13 AM 41.54 41.00 40.46 54.86 40.64 95.0 Not Reported 6.93 W 8.95 W 8.28 W No 0.000 No Precipitation 01/10/2019 10:59 AM 01/10/2019 11:04 AM 0.000 0.000 0.000 0.000 0.059 Not Reported Not Reported
01/11/2019 04:28 AM 41.18 40.64 39.92 54.86 40.64 95.0 Not Reported 6.71 W 7.83 W 8.95 W No 0.000 No Precipitation 01/10/2019 10:59 AM 01/10/2019 11:04 AM 0.000 0.000 0.000 0.000 0.059 Not Reported Not Reported
01/11/2019 04:43 AM 40.46 39.92 39.38 54.86 40.46 95.0 Not Reported 5.59 W 5.82 W 6.26 W No 0.000 No Precipitation 01/10/2019 10:59 AM 01/10/2019 11:04 AM 0.000 0.000 0.000 0.000 0.059 Not Reported Not Reported
01/11/2019 04:58 AM 40.46 40.10 39.74 54.86 40.28 96.0 Not Reported 5.59 W 5.59 W 6.93 W No 0.000 No Precipitation 01/10/2019 10:59 AM 01/10/2019 11:04 AM 0.000 0.000 0.000 0.000 0.059 Not Reported Not Reported
01/11/2019 05:13 AM 40.64 40.28 39.92 54.86 39.74 97.0 Not Reported 5.37 W 5.59 W 6.26 W No 0.000 No Precipitation 01/10/2019 10:59 AM 01/10/2019 11:04 AM 0.000 0.000 0.000 0.000 0.059 Not Reported Not Reported
01/11/2019 05:28 AM 40.64 40.28 39.92 54.86 39.74 96.0 Not Reported 5.37 W 5.82 W 7.16 W No 0.000 No Precipitation 01/10/2019 10:59 AM 01/10/2019 11:04 AM 0.000 0.000 0.000 0.000 0.059 Not Reported Not Reported
01/11/2019 05:43 AM 40.82 40.46 40.10 54.86 39.74 97.0 Not Reported 6.26 W 5.37 W 7.16 W No 0.000 No Precipitation 01/10/2019 10:59 AM 01/10/2019 11:04 AM 0.000 0.000 0.000 0.000 0.059 Not Reported Not Reported
01/11/2019 05:58 AM 40.82 40.28 39.92 54.86 39.74 96.0 Not Reported 4.92 W 5.14 W 7.38 W No 0.000 No Precipitation 01/10/2019 10:59 AM 01/10/2019 11:04 AM 0.000 0.000 0.000 0.000 0.059 Not Reported Not Reported
01/11/2019 06:13 AM 40.82 40.46 39.92 54.86 39.74 96.0 Not Reported 4.70 W 5.14 W 5.82 W No 0.000 No Precipitation 01/10/2019 10:59 AM 01/10/2019 11:04 AM 0.000 0.000 0.000 0.000 0.059 Not Reported Not Reported
01/11/2019 06:28 AM 41.00 40.64 40.10 54.86 39.74 96.0 Not Reported 4.47 W 4.25 W 5.82 W No 0.000 No Precipitation 01/10/2019 10:59 AM 01/10/2019 11:04 AM 0.000 0.000 0.000 0.000 0.059 Not Reported Not Reported
01/11/2019 06:43 AM 40.82 40.28 39.74 54.86 39.74 95.0 Not Reported 5.59 W 6.49 W 6.49 W No 0.000 No Precipitation 01/10/2019 10:59 AM 01/10/2019 11:04 AM 0.000 0.000 0.000 0.000 0.059 Not Reported Not Reported
01/11/2019 06:58 AM 41.18 40.82 40.46 54.86 39.74 96.0 Not Reported 4.92 W 4.47 W 6.49 W No 0.000 No Precipitation 01/10/2019 10:59 AM 01/10/2019 11:04 AM 0.000 0.000 0.000 0.000 0.059 Not Reported Not Reported
01/11/2019 07:13 AM 41.18 40.64 40.10 54.86 39.74 96.0 Not Reported 5.14 W 5.59 W 6.26 W No 0.000 No Precipitation 01/10/2019 10:59 AM 01/10/2019 11:04 AM 0.000 0.000 0.000 0.000 0.059 Not Reported Not Reported
01/11/2019 07:28 AM 40.46 40.10 39.38 54.86 39.74 95.0 Not Reported 5.14 SW 5.37 SW 6.26 W No 0.000 No Precipitation 01/10/2019 10:59 AM 01/10/2019 11:04 AM 0.000 0.000 0.000 0.000 0.055 Not Reported Not Reported
01/11/2019 07:43 AM 41.00 40.46 39.92 54.86 39.74 95.0 Not Reported 3.80 W 3.58 W 5.82 SW No 0.000 No Precipitation 01/10/2019 10:59 AM 01/10/2019 11:04 AM 0.000 0.000 0.000 0.000 0.055 Not Reported Not Reported
01/11/2019 07:58 AM 40.28 39.74 39.02 54.86 39.74 95.0 Not Reported 2.91 NW 2.68 NW 4.25 NW No 0.000 No Precipitation 01/10/2019 10:59 AM 01/10/2019 11:04 AM 0.000 0.000 0.000 0.000 0.055 Not Reported Not Reported
01/11/2019 08:13 AM 40.64 40.28 39.74 54.86 39.74 96.0 Not Reported 2.46 W 2.01 NW 3.80 NW No 0.000 No Precipitation 01/10/2019 10:59 AM 01/10/2019 11:04 AM 0.000 0.000 0.000 0.000 0.055 Not Reported Not Reported
01/11/2019 08:28 AM 40.10 39.74 39.38 54.86 39.74 96.0 Not Reported 4.03 NW 3.58 NW 4.03 W No 0.000 No Precipitation 01/10/2019 10:59 AM 01/10/2019 11:04 AM 0.000 0.000 0.000 0.000 0.055 Not Reported Not Reported
01/11/2019 08:43 AM 40.64 40.46 40.10 54.86 39.74 97.0 Not Reported 2.68 W 3.13 W 4.70 W No 0.000 No Precipitation 01/10/2019 10:59 AM 01/10/2019 11:04 AM 0.000 0.000 0.000 0.000 0.055 Not Reported Not Reported
01/11/2019 08:58 AM 40.46 40.10 39.74 54.86 39.38 97.0 Not Reported 4.47 W 4.92 W 5.59 W No 0.000 No Precipitation 01/10/2019 10:59 AM 01/10/2019 11:04 AM 0.000 0.000 0.000 0.000 0.051 Not Reported Not Reported
01/11/2019 09:13 AM 40.82 40.28 39.92 54.86 39.38 96.0 Not Reported 3.58 W 4.70 W 4.92 W No 0.000 No Precipitation 01/10/2019 10:59 AM 01/10/2019 11:04 AM 0.000 0.000 0.000 0.000 0.051 Not Reported Not Reported
01/11/2019 09:28 AM 41.18 40.82 40.28 54.86 39.38 95.0 Not Reported 3.58 W 3.80 NW 5.37 W No 0.000 No Precipitation 01/10/2019 10:59 AM 01/10/2019 11:04 AM 0.000 0.000 0.000 0.000 0.051 Not Reported Not Reported
01/11/2019 09:43 AM 41.54 40.64 39.92 54.86 39.38 93.0 Not Reported 4.70 W 4.47 W 5.14 W No 0.000 No Precipitation 01/10/2019 10:59 AM 01/10/2019 11:04 AM 0.000 0.000 0.000 0.000 0.051 Not Reported Not Reported
01/11/2019 09:58 AM 42.62 41.36 40.10 54.86 39.38 90.0 Not Reported 4.03 W 6.04 W 6.26 W No 0.000 No Precipitation 01/10/2019 10:59 AM 01/10/2019 11:04 AM 0.000 0.000 0.000 0.000 0.051 Not Reported Not Reported
01/11/2019 10:13 AM 42.80 41.36 39.74 54.86 39.38 89.0 Not Reported 3.80 W 5.14 W 5.14 W No 0.000 No Precipitation 01/10/2019 10:59 AM 01/10/2019 11:04 AM 0.000 0.000 0.000 0.000 0.051 Not Reported Not Reported
01/11/2019 10:28 AM 42.80 41.36 39.74 54.86 39.38 88.0 Not Reported 4.47 W 2.68 W 5.14 W No 0.000 No Precipitation 01/10/2019 10:59 AM 01/10/2019 11:04 AM 0.000 0.000 0.000 0.000 0.051 Not Reported Not Reported
01/11/2019 10:43 AM 43.70 41.90 39.74 54.86 39.38 86.0 Not Reported 4.47 NW 3.58 NW 7.61 W No 0.000 No Precipitation 01/10/2019 10:59 AM 01/10/2019 11:04 AM 0.000 0.000 0.000 0.000 0.043 Not Reported Not Reported
01/11/2019 10:58 AM 43.88 42.08 40.10 54.86 39.38 86.0 Not Reported 3.13 W 3.58 W 6.26 NW No 0.000 No Precipitation 01/10/2019 10:59 AM 01/10/2019 11:04 AM 0.000 0.000 0.000 0.000 0.043 Not Reported Not Reported
01/11/2019 11:13 AM 44.60 42.44 40.28 54.86 39.38 84.0 Not Reported 3.58 W 2.46 W 5.59 W No 0.000 No Precipitation 01/10/2019 10:59 AM 01/10/2019 11:04 AM 0.000 0.000 0.000 0.000 0.008 Not Reported Not Reported
01/11/2019 11:28 AM 44.60 42.62 40.28 54.86 39.38 84.0 Not Reported 3.58 SW 3.80 SW 5.14 W No 0.000 No Precipitation 01/10/2019 10:59 AM 01/10/2019 11:04 AM 0.000 0.000 0.000 0.000 0.008 Not Reported Not Reported
01/11/2019 11:43 AM 45.14 43.16 41.18 54.86 39.38 85.0 Not Reported 4.47 W 3.80 W 6.49 W No 0.000 No Precipitation 01/10/2019 10:59 AM 01/10/2019 11:04 AM 0.000 0.000 0.000 0.000 0.004 Not Reported Not Reported
01/11/2019 11:58 AM 46.94 44.42 41.90 54.86 39.38 82.0 Not Reported 3.58 W 4.25 W 4.70 W No 0.000 No Precipitation 01/10/2019 10:59 AM 01/10/2019 11:04 AM 0.000 0.000 0.000 0.000 0.004 Not Reported Not Reported
01/11/2019 12:13 PM 48.38 44.42 40.64 54.86 39.38 74.0 Not Reported 5.59 W 5.59 W 6.26 NW No 0.000 No Precipitation 01/10/2019 10:59 AM 01/10/2019 11:04 AM 0.000 0.000 0.000 0.000 0.000 Not Reported Not Reported
01/11/2019 12:28 PM 49.46 44.96 40.46 54.86 39.38 71.0 Not Reported 4.03 W 3.58 W 6.26 W No 0.000 No Precipitation 01/10/2019 10:59 AM 01/10/2019 11:04 AM 0.000 0.000 0.000 0.000 0.000 Not Reported Not Reported
01/11/2019 12:43 PM 49.64 45.86 42.26 54.86 39.38 75.0 Not Reported 3.58 SW 4.03 SW 4.70 W No 0.000 No Precipitation 01/10/2019 10:59 AM 01/10/2019 11:04 AM 0.000 0.000 0.000 0.000 0.000 Not Reported Not Reported
01/11/2019 12:58 PM 51.62 47.12 42.80 54.86 39.38 71.0 Not Reported 2.24 W 0.67 E 4.03 SW No 0.000 No Precipitation 01/10/2019 10:59 AM 01/10/2019 11:04 AM 0.000 0.000 0.000 0.000 0.000 Not Reported Not Reported
01/11/2019 01:13 PM 52.52 46.94 41.54 54.86 39.38 66.0 Not Reported 4.70 W 4.70 NW 7.16 SW No 0.000 No Precipitation 01/10/2019 10:59 AM 01/10/2019 11:04 AM 0.000 0.000 0.000 0.000 0.000 Not Reported Not Reported
01/11/2019 01:28 PM 52.88 46.76 40.46 54.86 39.38 62.0 Not Reported 3.36 NW 3.36 NW 7.83 W No 0.000 No Precipitation 01/10/2019 10:59 AM 01/10/2019 11:04 AM 0.000 0.000 0.000 0.000 0.000 Not Reported Not Reported
01/11/2019 01:43 PM 53.06 46.94 40.82 54.86 39.38 63.0 Not Reported 4.70 W 4.70 W 5.37 NW No 0.000 No Precipitation 01/10/2019 10:59 AM 01/10/2019 11:04 AM 0.000 0.000 0.000 0.000 0.000 Not Reported Not Reported
01/11/2019 01:58 PM 54.32 47.30 40.28 54.86 39.38 59.0 Not Reported 2.68 SW 3.80 SW 4.92 W No 0.000 No Precipitation 01/10/2019 10:59 AM 01/10/2019 11:04 AM 0.000 0.000 0.000 0.000 0.000 Not Reported Not Reported
01/11/2019 02:13 PM 54.86 48.20 41.72 55.04 39.38 61.0 Not Reported 2.01 SW 2.91 SW 4.70 W No 0.000 No Precipitation 01/10/2019 10:59 AM 01/10/2019 11:04 AM 0.000 0.000 0.000 0.000 0.000 Not Reported Not Reported
01/11/2019 02:28 PM 55.22 47.48 39.38 55.40 39.38 55.0 Not Reported 3.36 W 2.91 W 3.13 SW No 0.000 No Precipitation 01/10/2019 10:59 AM 01/10/2019 11:04 AM 0.000 0.000 0.000 0.000 0.000 Not Reported Not Reported
01/11/2019 02:43 PM 55.76 47.84 39.74 55.94 39.38 54.0 Not Reported 1.34 SW 2.01 SW 3.58 SW No 0.000 No Precipitation 01/10/2019 10:59 AM 01/10/2019 11:04 AM 0.000 0.000 0.000 0.000 0.000 Not Reported Not Reported
01/11/2019 02:58 PM 56.12 49.10 42.44 56.12 39.38 60.0 Not Reported 1.34 SW 0.45 SE 2.46 SW No 0.000 No Precipitation 01/10/2019 10:59 AM 01/10/2019 11:04 AM 0.000 0.000 0.000 0.000 0.000 Not Reported Not Reported
01/11/2019 03:13 PM 56.30 48.38 40.46 56.66 39.38 55.0 Not Reported 2.24 SW 2.91 SW 2.91 SW No 0.000 No Precipitation 01/10/2019 10:59 AM 01/10/2019 11:04 AM 0.000 0.000 0.000 0.000 0.000 Not Reported Not Reported
01/11/2019 03:28 PM 55.22 50.18 45.68 56.66 39.38 70.0 Not Reported 1.57 W 0.89 W 3.13 SW No 0.000 No Precipitation 01/10/2019 10:59 AM 01/10/2019 11:04 AM 0.000 0.000 0.000 0.000 0.000 Not Reported Not Reported
01/11/2019 03:43 PM 54.86 48.38 42.44 56.66 39.38 62.0 Not Reported 3.36 SW 2.68 W 2.91 SW No 0.000 No Precipitation 01/10/2019 10:59 AM 01/10/2019 11:04 AM 0.000 0.000 0.000 0.000 0.000 Not Reported Not Reported
01/11/2019 03:58 PM 55.94 50.18 44.96 56.66 39.38 66.0 Not Reported 2.46 NW 3.36 NW 3.58 W No 0.000 No Precipitation 01/10/2019 10:59 AM 01/10/2019 11:04 AM 0.000 0.000 0.000 0.000 0.000 Not Reported Not Reported
01/11/2019 04:13 PM 54.86 49.82 45.50 56.66 39.38 70.0 Not Reported 3.36 W 2.91 SW 4.92 NW No 0.000 No Precipitation 01/10/2019 10:59 AM 01/10/2019 11:04 AM 0.000 0.000 0.000 0.000 0.000 Not Reported Not Reported
01/11/2019 04:28 PM 54.32 47.84 41.54 56.66 39.38 61.0 Not Reported 3.13 W 2.46 SW 4.25 W No 0.000 No Precipitation 01/10/2019 10:59 AM 01/10/2019 11:04 AM 0.000 0.000 0.000 0.000 0.000 Not Reported Not Reported
01/11/2019 04:43 PM 53.42 48.74 44.24 56.66 39.38 70.0 Not Reported 5.37 W 4.03 W 3.80 W No 0.000 No Precipitation 01/10/2019 10:59 AM 01/10/2019 11:04 AM 0.000 0.000 0.000 0.000 0.000 Not Reported Not Reported
01/11/2019 04:58 PM 53.42 49.10 44.96 56.66 39.38 72.0 Not Reported 4.70 W 4.03 W 5.82 W No 0.000 No Precipitation 01/10/2019 10:59 AM 01/10/2019 11:04 AM 0.000 0.000 0.000 0.000 0.000 Not Reported Not Reported
01/11/2019 05:13 PM 53.06 48.38 44.06 56.66 39.38 71.0 Not Reported 4.92 W 5.59 W 6.49 NW No 0.000 No Precipitation 01/10/2019 10:59 AM 01/10/2019 11:04 AM 0.000 0.000 0.000 0.000 0.000 Not Reported Not Reported
01/11/2019 05:28 PM 51.08 48.74 46.76 56.66 39.38 85.0 Not Reported 5.14 W 5.82 W 5.59 W No 0.000 No Precipitation 01/10/2019 10:59 AM 01/10/2019 11:04 AM 0.000 0.000 0.000 0.000 0.000 Not Reported Not Reported
01/11/2019 05:43 PM 52.34 48.02 44.24 56.66 39.38 73.0 Not Reported 5.14 NW 3.58 W 8.72 W No 0.000 No Precipitation 01/10/2019 10:59 AM 01/10/2019 11:04 AM 0.000 0.000 0.000 0.000 0.000 Not Reported Not Reported
01/11/2019 05:58 PM 51.44 48.02 44.96 56.66 39.38 78.0 Not Reported 5.82 NW 6.49 W 7.38 W No 0.000 No Precipitation 01/10/2019 10:59 AM 01/10/2019 11:04 AM 0.000 0.000 0.000 0.000 0.000 Not Reported Not Reported
01/11/2019 06:13 PM 51.26 47.66 44.24 56.66 39.38 77.0 Not Reported 3.13 NW 3.58 W 8.28 W No 0.000 No Precipitation 01/10/2019 10:59 AM 01/10/2019 11:04 AM 0.000 0.000 0.000 0.000 0.000 Not Reported Not Reported
01/11/2019 06:28 PM 50.72 47.48 44.60 56.66 39.38 79.0 Not Reported 3.36 W 2.24 W 8.28 NW No 0.000 No Precipitation 01/10/2019 10:59 AM 01/10/2019 11:04 AM 0.000 0.000 0.000 0.000 0.000 Not Reported Not Reported
01/11/2019 06:43 PM 50.54 46.76 43.16 56.66 39.38 75.0 Not Reported 9.84 NW 8.05 W 8.50 NW No 0.000 No Precipitation 01/10/2019 10:59 AM 01/10/2019 11:04 AM 0.000 0.000 0.000 0.000 0.000 Not Reported Not Reported
01/11/2019 06:58 PM 50.18 46.58 42.98 56.66 39.38 75.0 Not Reported 6.04 NW 4.47 NW 10.74 NW No 0.000 No Precipitation 01/10/2019 10:59 AM 01/10/2019 11:04 AM 0.000 0.000 0.000 0.000 0.000 Not Reported Not Reported
01/11/2019 07:13 PM 49.82 46.58 43.34 56.66 39.38 78.0 Not Reported 4.25 NW 4.70 W 8.28 W No 0.000 No Precipitation 01/10/2019 10:59 AM 01/10/2019 11:04 AM 0.000 0.000 0.000 0.000 0.000 Not Reported Not Reported
01/11/2019 07:28 PM 49.10 45.50 42.08 56.66 39.38 76.0 Not Reported 5.14 W 5.37 W 6.26 W No 0.000 No Precipitation 01/10/2019 10:59 AM 01/10/2019 11:04 AM 0.000 0.000 0.000 0.000 0.000 Not Reported Not Reported
01/11/2019 07:43 PM 49.28 45.50 41.72 56.66 39.38 75.0 Not Reported 4.92 NW 4.70 NW 6.49 W No 0.000 No Precipitation 01/10/2019 10:59 AM 01/10/2019 11:04 AM 0.000 0.000 0.000 0.000 0.000 Not Reported Not Reported
01/11/2019 07:58 PM 48.74 44.78 40.82 56.66 39.38 73.0 Not Reported 5.59 N 4.47 N 8.28 NW No 0.000 No Precipitation 01/10/2019 10:59 AM 01/10/2019 11:04 AM 0.000 0.000 0.000 0.000 0.000 Not Reported Not Reported
01/11/2019 08:13 PM 48.38 44.60 41.00 56.66 39.38 75.0 Not Reported 5.14 NW 6.49 NW 8.28 NW No 0.000 No Precipitation 01/10/2019 10:59 AM 01/10/2019 11:04 AM 0.000 0.000 0.000 0.000 0.000 Not Reported Not Reported
01/11/2019 08:28 PM 48.02 44.42 40.82 56.66 39.38 75.0 Not Reported 4.25 W 4.03 W 8.95 NW No 0.000 No Precipitation 01/10/2019 10:59 AM 01/10/2019 11:04 AM 0.000 0.000 0.000 0.000 0.000 Not Reported Not Reported
01/11/2019 08:43 PM 48.02 44.24 40.28 56.66 39.38 74.0 Not Reported 5.14 NW 4.25 NW 6.71 NW No 0.000 No Precipitation 01/10/2019 10:59 AM 01/10/2019 11:04 AM 0.000 0.000 0.000 0.000 0.000 Not Reported Not Reported
01/11/2019 08:58 PM 47.66 44.24 40.28 56.66 39.38 75.0 Not Reported 6.93 W 7.38 W 8.72 NW No 0.000 No Precipitation 01/10/2019 10:59 AM 01/10/2019 11:04 AM 0.000 0.000 0.000 0.000 0.000 Not Reported Not Reported
01/11/2019 09:13 PM 47.48 43.88 39.92 56.66 39.38 74.0 Not Reported 2.68 W 4.47 W 7.83 W No 0.000 No Precipitation 01/10/2019 10:59 AM 01/10/2019 11:04 AM 0.000 0.000 0.000 0.000 0.000 Not Reported Not Reported
01/11/2019 09:28 PM 46.76 43.52 40.46 56.66 39.38 78.0 Not Reported 5.14 NW 5.14 NW 8.05 NW No 0.000 No Precipitation 01/10/2019 10:59 AM 01/10/2019 11:04 AM 0.000 0.000 0.000 0.000 0.000 Not Reported Not Reported
01/11/2019 09:43 PM 47.12 43.70 40.28 56.66 39.38 76.0 Not Reported 6.71 NW 6.26 W 8.95 NW No 0.000 No Precipitation 01/10/2019 10:59 AM 01/10/2019 11:04 AM 0.000 0.000 0.000 0.000 0.000 Not Reported Not Reported
01/11/2019 09:58 PM 47.66 44.42 41.18 56.66 39.38 78.0 Not Reported 8.28 W 8.72 W 8.95 W No 0.000 No Precipitation 01/10/2019 10:59 AM 01/10/2019 11:04 AM 0.000 0.000 0.000 0.000 0.000 Not Reported Not Reported
01/11/2019 10:13 PM 46.76 44.24 41.54 56.66 39.38 81.0 Not Reported 5.37 W 4.25 NW 6.26 NW No 0.000 No Precipitation 01/10/2019 10:59 AM 01/10/2019 11:04 AM 0.000 0.000 0.000 0.000 0.000 Not Reported Not Reported
01/11/2019 10:28 PM 46.40 43.52 40.28 56.66 39.38 78.0 Not Reported 4.03 NW 4.70 NW 7.61 W No 0.000 No Precipitation 01/10/2019 10:59 AM 01/10/2019 11:04 AM 0.000 0.000 0.000 0.000 0.000 Not Reported Not Reported
01/11/2019 10:43 PM 46.04 43.16 39.92 56.66 39.38 78.0 Not Reported 5.37 W 4.70 NW 6.93 NW No 0.000 No Precipitation 01/10/2019 10:59 AM 01/10/2019 11:04 AM 0.000 0.000 0.000 0.000 0.000 Not Reported Not Reported
01/11/2019 10:58 PM 46.04 43.34 40.10 56.66 39.38 79.0 Not Reported 5.59 W 4.92 NW 6.71 NW No 0.000 No Precipitation 01/10/2019 10:59 AM 01/10/2019 11:04 AM 0.000 0.000 0.000 0.000 0.000 Not Reported Not Reported
01/11/2019 11:13 PM 45.50 43.16 40.82 56.66 39.38 83.0 Not Reported 6.04 SW 6.71 W 8.95 W Yes 0.003 Rain Slight 01/11/2019 10:12 PM   0.004 0.004 0.004 0.004 0.004 Not Reported Not Reported
01/11/2019 11:28 PM 44.96 43.52 42.08 56.66 39.38 89.0 Not Reported 5.59 W 5.37 W 6.71 W No 0.000 No Precipitation 01/11/2019 10:12 PM 01/11/2019 10:17 PM 0.004 0.004 0.004 0.004 0.004 Not Reported Not Reported
01/11/2019 11:43 PM 44.96 43.70 42.26 56.66 39.38 90.0 Not Reported 5.14 W 4.92 W 6.04 W No 0.000 No Precipitation 01/11/2019 10:12 PM 01/11/2019 10:17 PM 0.004 0.004 0.004 0.004 0.004 Not Reported Not Reported
01/11/2019 11:58 PM 44.96 43.88 42.62 56.66 39.38 91.0 Not Reported 6.26 W 6.49 W 6.26 W No 0.000 No Precipitation 01/11/2019 10:12 PM 01/11/2019 10:17 PM 0.004 0.004 0.004 0.004 0.004 Not Reported Not Reported